sensor_id;sensor_type;location;lat;lon;timestamp;temperature;humidity
19152;DHT22;9708;53.114;9.388;2024-02-21T00:02:20;9.20;99.90
19152;DHT22;9708;53.114;9.388;2024-02-21T00:04:47;9.30;99.90
19152;DHT22;9708;53.114;9.388;2024-02-21T00:07:14;9.20;99.90
19152;DHT22;9708;53.114;9.388;2024-02-21T00:09:42;9.20;99.90
19152;DHT22;9708;53.114;9.388;2024-02-21T00:12:09;9.20;99.90
19152;DHT22;9708;53.114;9.388;2024-02-21T00:14:36;9.30;99.90
19152;DHT22;9708;53.114;9.388;2024-02-21T00:17:03;9.20;99.90
19152;DHT22;9708;53.114;9.388;2024-02-21T00:19:30;9.30;99.90
19152;DHT22;9708;53.114;9.388;2024-02-21T00:21:57;9.30;99.90
19152;DHT22;9708;53.114;9.388;2024-02-21T00:24:23;9.30;99.90
19152;DHT22;9708;53.114;9.388;2024-02-21T00:26:51;9.30;99.90
19152;DHT22;9708;53.114;9.388;2024-02-21T00:29:18;9.30;99.90
19152;DHT22;9708;53.114;9.388;2024-02-21T00:31:45;9.20;99.90
19152;DHT22;9708;53.114;9.388;2024-02-21T00:34:12;9.30;99.90
19152;DHT22;9708;53.114;9.388;2024-02-21T00:36:39;9.30;99.90
19152;DHT22;9708;53.114;9.388;2024-02-21T00:39:06;9.30;99.90
19152;DHT22;9708;53.114;9.388;2024-02-21T00:41:32;9.30;99.90
19152;DHT22;9708;53.114;9.388;2024-02-21T00:44:01;9.30;99.90
19152;DHT22;9708;53.114;9.388;2024-02-21T00:46:27;9.30;99.90
19152;DHT22;9708;53.114;9.388;2024-02-21T00:48:54;9.30;99.90
19152;DHT22;9708;53.114;9.388;2024-02-21T00:51:21;9.30;99.90
19152;DHT22;9708;53.114;9.388;2024-02-21T00:53:48;9.30;99.90
19152;DHT22;9708;53.114;9.388;2024-02-21T00:56:15;9.30;99.90
19152;DHT22;9708;53.114;9.388;2024-02-21T00:58:42;9.30;99.90
19152;DHT22;9708;53.114;9.388;2024-02-21T01:01:10;9.40;99.90
19152;DHT22;9708;53.114;9.388;2024-02-21T01:03:39;9.40;99.90
19152;DHT22;9708;53.114;9.388;2024-02-21T01:06:06;9.40;99.90
19152;DHT22;9708;53.114;9.388;2024-02-21T01:08:33;9.30;99.90
19152;DHT22;9708;53.114;9.388;2024-02-21T01:11:00;9.40;99.90
19152;DHT22;9708;53.114;9.388;2024-02-21T01:13:26;9.40;99.90
19152;DHT22;9708;53.114;9.388;2024-02-21T01:15:53;9.40;99.90
19152;DHT22;9708;53.114;9.388;2024-02-21T01:18:22;9.40;99.90
19152;DHT22;9708;53.114;9.388;2024-02-21T01:20:48;9.40;99.90
19152;DHT22;9708;53.114;9.388;2024-02-21T01:23:15;9.40;99.90
19152;DHT22;9708;53.114;9.388;2024-02-21T01:25:42;9.40;99.90
19152;DHT22;9708;53.114;9.388;2024-02-21T01:28:09;9.40;99.90
19152;DHT22;9708;53.114;9.388;2024-02-21T01:30:36;9.30;99.90
19152;DHT22;9708;53.114;9.388;2024-02-21T01:33:03;9.30;99.90
19152;DHT22;9708;53.114;9.388;2024-02-21T01:35:31;9.30;99.90
19152;DHT22;9708;53.114;9.388;2024-02-21T01:37:58;9.30;99.90
19152;DHT22;9708;53.114;9.388;2024-02-21T01:40:25;9.30;99.90
19152;DHT22;9708;53.114;9.388;2024-02-21T01:42:54;9.30;99.90
19152;DHT22;9708;53.114;9.388;2024-02-21T01:45:20;9.30;99.90
19152;DHT22;9708;53.114;9.388;2024-02-21T01:47:47;9.30;99.90
19152;DHT22;9708;53.114;9.388;2024-02-21T01:50:15;9.30;99.90
19152;DHT22;9708;53.114;9.388;2024-02-21T01:52:46;9.30;99.90
19152;DHT22;9708;53.114;9.388;2024-02-21T01:55:16;9.40;99.90
19152;DHT22;9708;53.114;9.388;2024-02-21T01:57:44;9.50;99.90
19152;DHT22;9708;53.114;9.388;2024-02-21T02:00:13;9.40;99.90
19152;DHT22;9708;53.114;9.388;2024-02-21T02:02:42;9.40;99.90
19152;DHT22;9708;53.114;9.388;2024-02-21T02:05:09;9.40;99.90
19152;DHT22;9708;53.114;9.388;2024-02-21T02:07:37;9.40;99.90
19152;DHT22;9708;53.114;9.388;2024-02-21T02:10:06;9.40;99.90
19152;DHT22;9708;53.114;9.388;2024-02-21T02:12:33;9.40;99.90
19152;DHT22;9708;53.114;9.388;2024-02-21T02:15:01;9.40;99.90
19152;DHT22;9708;53.114;9.388;2024-02-21T02:17:30;9.40;99.90
19152;DHT22;9708;53.114;9.388;2024-02-21T02:19:57;9.30;99.90
19152;DHT22;9708;53.114;9.388;2024-02-21T02:22:28;9.40;99.90
19152;DHT22;9708;53.114;9.388;2024-02-21T02:24:56;9.40;99.90
19152;DHT22;9708;53.114;9.388;2024-02-21T02:27:24;9.40;99.90
19152;DHT22;9708;53.114;9.388;2024-02-21T02:29:50;9.40;99.90
19152;DHT22;9708;53.114;9.388;2024-02-21T02:32:17;9.40;99.90
19152;DHT22;9708;53.114;9.388;2024-02-21T02:34:44;9.40;99.90
19152;DHT22;9708;53.114;9.388;2024-02-21T02:37:11;9.40;99.90
19152;DHT22;9708;53.114;9.388;2024-02-21T02:39:38;9.40;99.90
19152;DHT22;9708;53.114;9.388;2024-02-21T02:42:06;9.40;99.90
19152;DHT22;9708;53.114;9.388;2024-02-21T02:44:34;9.30;99.90
19152;DHT22;9708;53.114;9.388;2024-02-21T02:47:01;9.30;99.90
19152;DHT22;9708;53.114;9.388;2024-02-21T02:49:27;9.40;99.90
19152;DHT22;9708;53.114;9.388;2024-02-21T02:51:54;9.40;99.90
19152;DHT22;9708;53.114;9.388;2024-02-21T02:54:21;9.30;99.90
19152;DHT22;9708;53.114;9.388;2024-02-21T02:56:49;9.40;99.90
19152;DHT22;9708;53.114;9.388;2024-02-21T02:59:18;9.40;99.90
19152;DHT22;9708;53.114;9.388;2024-02-21T03:01:45;9.30;99.90
19152;DHT22;9708;53.114;9.388;2024-02-21T03:04:12;9.40;99.90
19152;DHT22;9708;53.114;9.388;2024-02-21T03:06:38;9.30;99.90
19152;DHT22;9708;53.114;9.388;2024-02-21T03:09:05;9.40;99.90
19152;DHT22;9708;53.114;9.388;2024-02-21T03:11:34;9.40;99.90
19152;DHT22;9708;53.114;9.388;2024-02-21T03:14:01;9.40;99.90
19152;DHT22;9708;53.114;9.388;2024-02-21T03:16:29;9.40;99.90
19152;DHT22;9708;53.114;9.388;2024-02-21T03:18:56;9.40;99.90
19152;DHT22;9708;53.114;9.388;2024-02-21T03:21:22;9.40;99.90
19152;DHT22;9708;53.114;9.388;2024-02-21T03:23:49;9.40;99.90
19152;DHT22;9708;53.114;9.388;2024-02-21T03:26:16;9.40;99.90
19152;DHT22;9708;53.114;9.388;2024-02-21T03:28:43;9.40;99.90
19152;DHT22;9708;53.114;9.388;2024-02-21T03:31:11;9.40;99.90
19152;DHT22;9708;53.114;9.388;2024-02-21T03:33:39;9.40;99.90
19152;DHT22;9708;53.114;9.388;2024-02-21T03:36:07;9.40;99.90
19152;DHT22;9708;53.114;9.388;2024-02-21T03:38:39;9.40;99.90
19152;DHT22;9708;53.114;9.388;2024-02-21T03:41:06;9.40;99.90
19152;DHT22;9708;53.114;9.388;2024-02-21T03:43:32;9.40;99.90
19152;DHT22;9708;53.114;9.388;2024-02-21T03:45:59;9.40;99.90
19152;DHT22;9708;53.114;9.388;2024-02-21T03:48:26;9.40;99.90
19152;DHT22;9708;53.114;9.388;2024-02-21T03:50:55;9.40;99.90
19152;DHT22;9708;53.114;9.388;2024-02-21T03:53:21;9.50;99.90
19152;DHT22;9708;53.114;9.388;2024-02-21T03:55:48;9.50;99.90
19152;DHT22;9708;53.114;9.388;2024-02-21T03:58:15;9.50;99.90
19152;DHT22;9708;53.114;9.388;2024-02-21T04:00:42;9.40;99.90
19152;DHT22;9708;53.114;9.388;2024-02-21T04:03:09;9.40;99.90
19152;DHT22;9708;53.114;9.388;2024-02-21T04:05:36;9.40;99.90
19152;DHT22;9708;53.114;9.388;2024-02-21T04:08:05;9.40;99.90
19152;DHT22;9708;53.114;9.388;2024-02-21T04:10:32;9.40;99.90
19152;DHT22;9708;53.114;9.388;2024-02-21T04:12:59;9.30;99.90
19152;DHT22;9708;53.114;9.388;2024-02-21T04:15:26;9.30;99.90
19152;DHT22;9708;53.114;9.388;2024-02-21T04:17:52;9.30;99.90
19152;DHT22;9708;53.114;9.388;2024-02-21T04:20:19;9.20;99.90
19152;DHT22;9708;53.114;9.388;2024-02-21T04:22:46;9.20;99.90
19152;DHT22;9708;53.114;9.388;2024-02-21T04:25:15;9.20;99.90
19152;DHT22;9708;53.114;9.388;2024-02-21T04:27:42;9.20;99.90
19152;DHT22;9708;53.114;9.388;2024-02-21T04:30:09;9.20;99.90
19152;DHT22;9708;53.114;9.388;2024-02-21T04:32:36;9.20;99.90
19152;DHT22;9708;53.114;9.388;2024-02-21T04:35:03;9.20;99.90
19152;DHT22;9708;53.114;9.388;2024-02-21T04:37:30;9.20;99.90
19152;DHT22;9708;53.114;9.388;2024-02-21T04:39:57;9.20;99.90
19152;DHT22;9708;53.114;9.388;2024-02-21T04:42:25;9.20;99.90
19152;DHT22;9708;53.114;9.388;2024-02-21T04:44:52;9.10;99.90
19152;DHT22;9708;53.114;9.388;2024-02-21T04:47:19;9.10;99.90
19152;DHT22;9708;53.114;9.388;2024-02-21T04:49:46;9.10;99.90
19152;DHT22;9708;53.114;9.388;2024-02-21T04:52:13;9.10;99.90
19152;DHT22;9708;53.114;9.388;2024-02-21T04:54:40;9.10;99.90
19152;DHT22;9708;53.114;9.388;2024-02-21T04:57:06;9.10;99.90
19152;DHT22;9708;53.114;9.388;2024-02-21T04:59:37;9.10;99.90
19152;DHT22;9708;53.114;9.388;2024-02-21T05:02:04;9.10;99.90
19152;DHT22;9708;53.114;9.388;2024-02-21T05:04:31;9.10;99.90
19152;DHT22;9708;53.114;9.388;2024-02-21T05:06:57;9.10;99.90
19152;DHT22;9708;53.114;9.388;2024-02-21T05:09:26;9.00;99.90
19152;DHT22;9708;53.114;9.388;2024-02-21T05:11:53;9.10;99.90
19152;DHT22;9708;53.114;9.388;2024-02-21T05:14:19;9.00;99.90
19152;DHT22;9708;53.114;9.388;2024-02-21T05:16:48;9.00;99.90
19152;DHT22;9708;53.114;9.388;2024-02-21T05:19:14;9.00;99.90
19152;DHT22;9708;53.114;9.388;2024-02-21T05:21:41;9.10;99.90
19152;DHT22;9708;53.114;9.388;2024-02-21T05:24:08;9.10;99.90
19152;DHT22;9708;53.114;9.388;2024-02-21T05:26:35;9.10;99.90
19152;DHT22;9708;53.114;9.388;2024-02-21T05:29:02;9.00;99.90
19152;DHT22;9708;53.114;9.388;2024-02-21T05:31:54;9.10;99.90
19152;DHT22;9708;53.114;9.388;2024-02-21T05:34:22;9.00;99.90
19152;DHT22;9708;53.114;9.388;2024-02-21T05:36:49;9.10;99.90
19152;DHT22;9708;53.114;9.388;2024-02-21T05:39:16;9.00;99.90
19152;DHT22;9708;53.114;9.388;2024-02-21T05:41:43;9.10;99.90
19152;DHT22;9708;53.114;9.388;2024-02-21T05:44:10;9.00;99.90
19152;DHT22;9708;53.114;9.388;2024-02-21T05:46:37;9.10;99.90
19152;DHT22;9708;53.114;9.388;2024-02-21T05:49:04;9.00;99.90
19152;DHT22;9708;53.114;9.388;2024-02-21T05:51:34;9.10;99.90
19152;DHT22;9708;53.114;9.388;2024-02-21T05:54:01;9.00;99.90
19152;DHT22;9708;53.114;9.388;2024-02-21T05:56:28;9.00;99.90
19152;DHT22;9708;53.114;9.388;2024-02-21T05:58:55;9.00;99.90
19152;DHT22;9708;53.114;9.388;2024-02-21T06:01:22;9.00;99.90
19152;DHT22;9708;53.114;9.388;2024-02-21T06:03:48;9.00;99.90
19152;DHT22;9708;53.114;9.388;2024-02-21T06:06:15;9.00;99.90
19152;DHT22;9708;53.114;9.388;2024-02-21T06:08:43;9.00;99.90
19152;DHT22;9708;53.114;9.388;2024-02-21T06:11:10;9.00;99.90
19152;DHT22;9708;53.114;9.388;2024-02-21T06:13:38;9.00;99.90
19152;DHT22;9708;53.114;9.388;2024-02-21T06:16:06;9.00;99.90
19152;DHT22;9708;53.114;9.388;2024-02-21T06:18:35;9.00;99.90
19152;DHT22;9708;53.114;9.388;2024-02-21T06:21:03;8.90;99.90
19152;DHT22;9708;53.114;9.388;2024-02-21T06:23:30;9.00;99.90
19152;DHT22;9708;53.114;9.388;2024-02-21T06:25:58;8.90;99.90
19152;DHT22;9708;53.114;9.388;2024-02-21T06:28:25;9.00;99.90
19152;DHT22;9708;53.114;9.388;2024-02-21T06:30:52;8.90;99.90
19152;DHT22;9708;53.114;9.388;2024-02-21T06:33:19;8.90;99.90
19152;DHT22;9708;53.114;9.388;2024-02-21T06:35:50;8.90;99.90
19152;DHT22;9708;53.114;9.388;2024-02-21T06:38:18;8.90;99.90
19152;DHT22;9708;53.114;9.388;2024-02-21T06:40:45;8.90;99.90
19152;DHT22;9708;53.114;9.388;2024-02-21T06:43:17;8.90;99.90
19152;DHT22;9708;53.114;9.388;2024-02-21T06:45:45;8.90;99.90
19152;DHT22;9708;53.114;9.388;2024-02-21T06:48:16;8.90;99.90
19152;DHT22;9708;53.114;9.388;2024-02-21T06:50:43;8.90;99.90
19152;DHT22;9708;53.114;9.388;2024-02-21T06:53:10;8.90;99.90
19152;DHT22;9708;53.114;9.388;2024-02-21T06:55:37;8.90;99.90
19152;DHT22;9708;53.114;9.388;2024-02-21T06:58:04;8.90;99.90
19152;DHT22;9708;53.114;9.388;2024-02-21T07:00:32;8.90;99.90
19152;DHT22;9708;53.114;9.388;2024-02-21T07:02:59;8.90;99.90
19152;DHT22;9708;53.114;9.388;2024-02-21T07:05:25;8.90;99.90
19152;DHT22;9708;53.114;9.388;2024-02-21T07:07:52;8.90;99.90
19152;DHT22;9708;53.114;9.388;2024-02-21T07:10:19;8.90;99.90
19152;DHT22;9708;53.114;9.388;2024-02-21T07:12:46;8.90;99.90
19152;DHT22;9708;53.114;9.388;2024-02-21T07:15:14;8.90;99.90
19152;DHT22;9708;53.114;9.388;2024-02-21T07:17:42;8.90;99.90
19152;DHT22;9708;53.114;9.388;2024-02-21T07:20:09;9.00;99.90
19152;DHT22;9708;53.114;9.388;2024-02-21T07:22:36;9.00;99.90
19152;DHT22;9708;53.114;9.388;2024-02-21T07:25:04;9.00;99.90
19152;DHT22;9708;53.114;9.388;2024-02-21T07:27:31;9.00;99.90
19152;DHT22;9708;53.114;9.388;2024-02-21T07:29:58;9.10;99.90
19152;DHT22;9708;53.114;9.388;2024-02-21T07:32:25;9.10;99.90
19152;DHT22;9708;53.114;9.388;2024-02-21T07:34:53;9.10;99.90
19152;DHT22;9708;53.114;9.388;2024-02-21T07:37:20;9.00;99.90
19152;DHT22;9708;53.114;9.388;2024-02-21T07:39:47;9.00;99.90
19152;DHT22;9708;53.114;9.388;2024-02-21T07:42:14;9.00;99.90
19152;DHT22;9708;53.114;9.388;2024-02-21T07:44:41;9.00;99.90
19152;DHT22;9708;53.114;9.388;2024-02-21T07:47:08;9.00;99.90
19152;DHT22;9708;53.114;9.388;2024-02-21T07:49:41;9.10;99.90
19152;DHT22;9708;53.114;9.388;2024-02-21T07:52:09;9.10;99.90
19152;DHT22;9708;53.114;9.388;2024-02-21T07:54:36;9.10;99.90
19152;DHT22;9708;53.114;9.388;2024-02-21T07:57:03;9.10;99.90
19152;DHT22;9708;53.114;9.388;2024-02-21T07:59:30;9.20;99.90
19152;DHT22;9708;53.114;9.388;2024-02-21T08:01:57;9.20;99.90
19152;DHT22;9708;53.114;9.388;2024-02-21T08:04:24;9.20;99.90
19152;DHT22;9708;53.114;9.388;2024-02-21T08:06:52;9.20;99.90
19152;DHT22;9708;53.114;9.388;2024-02-21T08:09:22;9.20;99.90
19152;DHT22;9708;53.114;9.388;2024-02-21T08:11:49;9.20;99.90
19152;DHT22;9708;53.114;9.388;2024-02-21T08:14:17;9.20;99.90
19152;DHT22;9708;53.114;9.388;2024-02-21T08:16:44;9.20;99.90
19152;DHT22;9708;53.114;9.388;2024-02-21T08:19:11;9.20;99.90
19152;DHT22;9708;53.114;9.388;2024-02-21T08:21:38;9.20;99.90
19152;DHT22;9708;53.114;9.388;2024-02-21T08:24:05;9.20;99.90
19152;DHT22;9708;53.114;9.388;2024-02-21T08:26:33;9.20;99.90
19152;DHT22;9708;53.114;9.388;2024-02-21T08:29:01;9.20;99.90
19152;DHT22;9708;53.114;9.388;2024-02-21T08:31:28;9.30;99.90
19152;DHT22;9708;53.114;9.388;2024-02-21T08:33:57;9.20;99.90
19152;DHT22;9708;53.114;9.388;2024-02-21T08:36:28;9.20;99.90
19152;DHT22;9708;53.114;9.388;2024-02-21T08:38:55;9.30;99.90
19152;DHT22;9708;53.114;9.388;2024-02-21T08:41:23;9.30;99.90
19152;DHT22;9708;53.114;9.388;2024-02-21T08:43:51;9.20;99.90
19152;DHT22;9708;53.114;9.388;2024-02-21T08:46:19;9.20;99.90
19152;DHT22;9708;53.114;9.388;2024-02-21T08:48:46;9.20;99.90
19152;DHT22;9708;53.114;9.388;2024-02-21T08:51:13;9.20;99.90
19152;DHT22;9708;53.114;9.388;2024-02-21T08:53:40;9.20;99.90
19152;DHT22;9708;53.114;9.388;2024-02-21T08:56:07;9.20;99.90
19152;DHT22;9708;53.114;9.388;2024-02-21T08:58:35;9.20;99.90
19152;DHT22;9708;53.114;9.388;2024-02-21T09:01:04;9.20;99.90
19152;DHT22;9708;53.114;9.388;2024-02-21T09:03:31;9.30;99.90
19152;DHT22;9708;53.114;9.388;2024-02-21T09:05:58;9.20;99.90
19152;DHT22;9708;53.114;9.388;2024-02-21T09:08:25;9.30;99.90
19152;DHT22;9708;53.114;9.388;2024-02-21T09:10:52;9.30;99.90
19152;DHT22;9708;53.114;9.388;2024-02-21T09:13:19;9.30;99.90
19152;DHT22;9708;53.114;9.388;2024-02-21T09:15:47;9.40;99.90
19152;DHT22;9708;53.114;9.388;2024-02-21T09:18:15;9.40;99.90
19152;DHT22;9708;53.114;9.388;2024-02-21T09:20:42;9.60;99.90
19152;DHT22;9708;53.114;9.388;2024-02-21T09:23:09;9.70;99.90
19152;DHT22;9708;53.114;9.388;2024-02-21T09:25:36;9.90;99.90
19152;DHT22;9708;53.114;9.388;2024-02-21T09:28:03;10.00;99.90
19152;DHT22;9708;53.114;9.388;2024-02-21T09:30:31;10.00;99.90
19152;DHT22;9708;53.114;9.388;2024-02-21T09:32:58;9.90;99.90
19152;DHT22;9708;53.114;9.388;2024-02-21T09:35:28;10.00;99.90
19152;DHT22;9708;53.114;9.388;2024-02-21T09:37:55;9.90;99.90
19152;DHT22;9708;53.114;9.388;2024-02-21T09:40:22;9.80;99.90
19152;DHT22;9708;53.114;9.388;2024-02-21T09:42:58;9.80;99.90
19152;DHT22;9708;53.114;9.388;2024-02-21T09:45:28;9.70;99.90
19152;DHT22;9708;53.114;9.388;2024-02-21T09:48:22;9.70;99.90
19152;DHT22;9708;53.114;9.388;2024-02-21T09:50:55;9.70;99.90
19152;DHT22;9708;53.114;9.388;2024-02-21T09:53:24;9.60;99.90
19152;DHT22;9708;53.114;9.388;2024-02-21T09:55:52;9.70;99.90
19152;DHT22;9708;53.114;9.388;2024-02-21T09:58:19;9.70;99.90
19152;DHT22;9708;53.114;9.388;2024-02-21T10:00:46;9.70;99.90
19152;DHT22;9708;53.114;9.388;2024-02-21T10:03:13;9.70;99.90
19152;DHT22;9708;53.114;9.388;2024-02-21T10:05:47;9.70;99.90
19152;DHT22;9708;53.114;9.388;2024-02-21T10:08:16;9.60;99.90
19152;DHT22;9708;53.114;9.388;2024-02-21T10:10:44;9.60;99.90
19152;DHT22;9708;53.114;9.388;2024-02-21T10:13:21;9.60;99.90
19152;DHT22;9708;53.114;9.388;2024-02-21T10:15:59;9.70;99.90
19152;DHT22;9708;53.114;9.388;2024-02-21T10:18:26;9.60;99.90
19152;DHT22;9708;53.114;9.388;2024-02-21T10:21:00;9.60;99.90
19152;DHT22;9708;53.114;9.388;2024-02-21T10:23:29;9.70;99.90
19152;DHT22;9708;53.114;9.388;2024-02-21T10:26:05;9.70;99.90
19152;DHT22;9708;53.114;9.388;2024-02-21T10:28:32;9.60;99.90
19152;DHT22;9708;53.114;9.388;2024-02-21T10:30:59;9.60;99.90
19152;DHT22;9708;53.114;9.388;2024-02-21T10:33:26;9.70;99.90
19152;DHT22;9708;53.114;9.388;2024-02-21T10:35:54;9.70;99.90
19152;DHT22;9708;53.114;9.388;2024-02-21T10:38:20;9.70;99.90
19152;DHT22;9708;53.114;9.388;2024-02-21T10:40:49;9.70;99.90
19152;DHT22;9708;53.114;9.388;2024-02-21T10:43:18;9.70;99.90
19152;DHT22;9708;53.114;9.388;2024-02-21T10:45:47;9.60;99.90
19152;DHT22;9708;53.114;9.388;2024-02-21T10:48:15;9.70;99.90
19152;DHT22;9708;53.114;9.388;2024-02-21T10:50:53;9.80;99.90
19152;DHT22;9708;53.114;9.388;2024-02-21T10:53:38;9.80;99.90
19152;DHT22;9708;53.114;9.388;2024-02-21T10:56:21;9.90;99.90
19152;DHT22;9708;53.114;9.388;2024-02-21T10:58:49;9.90;99.90
19152;DHT22;9708;53.114;9.388;2024-02-21T11:01:17;10.00;99.90
19152;DHT22;9708;53.114;9.388;2024-02-21T11:03:45;10.00;99.90
19152;DHT22;9708;53.114;9.388;2024-02-21T11:06:14;10.10;99.90
19152;DHT22;9708;53.114;9.388;2024-02-21T11:08:41;10.10;99.90
19152;DHT22;9708;53.114;9.388;2024-02-21T11:11:08;10.10;99.90
19152;DHT22;9708;53.114;9.388;2024-02-21T11:13:44;10.20;99.90
19152;DHT22;9708;53.114;9.388;2024-02-21T11:16:20;10.20;99.90
19152;DHT22;9708;53.114;9.388;2024-02-21T11:18:47;10.20;99.90
19152;DHT22;9708;53.114;9.388;2024-02-21T11:21:14;10.30;99.90
19152;DHT22;9708;53.114;9.388;2024-02-21T11:23:41;10.30;99.90
19152;DHT22;9708;53.114;9.388;2024-02-21T11:26:09;10.30;99.90
19152;DHT22;9708;53.114;9.388;2024-02-21T11:28:36;10.30;99.90
19152;DHT22;9708;53.114;9.388;2024-02-21T11:31:11;10.30;99.90
19152;DHT22;9708;53.114;9.388;2024-02-21T11:33:40;10.40;99.90
19152;DHT22;9708;53.114;9.388;2024-02-21T11:36:08;10.30;99.90
19152;DHT22;9708;53.114;9.388;2024-02-21T11:38:35;10.60;99.90
19152;DHT22;9708;53.114;9.388;2024-02-21T11:41:02;10.70;99.90
19152;DHT22;9708;53.114;9.388;2024-02-21T11:43:29;10.80;99.90
19152;DHT22;9708;53.114;9.388;2024-02-21T11:46:00;10.90;99.90
19152;DHT22;9708;53.114;9.388;2024-02-21T11:48:31;10.90;99.90
19152;DHT22;9708;53.114;9.388;2024-02-21T11:50:58;11.10;99.90
19152;DHT22;9708;53.114;9.388;2024-02-21T11:53:26;11.10;99.90
19152;DHT22;9708;53.114;9.388;2024-02-21T11:55:56;11.10;99.90
19152;DHT22;9708;53.114;9.388;2024-02-21T11:58:23;11.10;99.90
19152;DHT22;9708;53.114;9.388;2024-02-21T12:00:50;11.20;99.90
19152;DHT22;9708;53.114;9.388;2024-02-21T12:03:17;11.20;99.90
19152;DHT22;9708;53.114;9.388;2024-02-21T12:05:45;11.20;99.90
19152;DHT22;9708;53.114;9.388;2024-02-21T12:08:13;11.20;99.90
19152;DHT22;9708;53.114;9.388;2024-02-21T12:10:42;11.00;99.90
19152;DHT22;9708;53.114;9.388;2024-02-21T12:13:10;11.00;99.90
19152;DHT22;9708;53.114;9.388;2024-02-21T12:15:38;11.00;99.90
19152;DHT22;9708;53.114;9.388;2024-02-21T12:18:05;11.00;99.90
19152;DHT22;9708;53.114;9.388;2024-02-21T12:20:32;11.00;99.90
19152;DHT22;9708;53.114;9.388;2024-02-21T12:23:03;11.00;99.90
19152;DHT22;9708;53.114;9.388;2024-02-21T12:25:30;10.90;99.90
19152;DHT22;9708;53.114;9.388;2024-02-21T12:27:57;10.90;99.90
19152;DHT22;9708;53.114;9.388;2024-02-21T12:30:25;10.90;99.90
19152;DHT22;9708;53.114;9.388;2024-02-21T12:32:52;10.90;99.90
19152;DHT22;9708;53.114;9.388;2024-02-21T12:35:19;10.90;99.90
19152;DHT22;9708;53.114;9.388;2024-02-21T12:37:45;11.00;99.90
19152;DHT22;9708;53.114;9.388;2024-02-21T12:40:14;10.90;99.90
19152;DHT22;9708;53.114;9.388;2024-02-21T12:42:41;11.00;99.90
19152;DHT22;9708;53.114;9.388;2024-02-21T12:45:08;11.00;99.90
19152;DHT22;9708;53.114;9.388;2024-02-21T12:47:35;11.00;99.90
19152;DHT22;9708;53.114;9.388;2024-02-21T12:50:02;11.00;99.90
19152;DHT22;9708;53.114;9.388;2024-02-21T12:52:32;11.10;99.90
19152;DHT22;9708;53.114;9.388;2024-02-21T12:54:59;11.10;99.90
19152;DHT22;9708;53.114;9.388;2024-02-21T12:57:27;11.40;99.90
19152;DHT22;9708;53.114;9.388;2024-02-21T12:59:54;11.40;99.90
19152;DHT22;9708;53.114;9.388;2024-02-21T13:02:21;11.50;99.90
19152;DHT22;9708;53.114;9.388;2024-02-21T13:04:48;11.40;99.90
19152;DHT22;9708;53.114;9.388;2024-02-21T13:07:14;11.50;99.90
19152;DHT22;9708;53.114;9.388;2024-02-21T13:09:41;11.60;99.90
19152;DHT22;9708;53.114;9.388;2024-02-21T13:12:08;11.70;99.90
19152;DHT22;9708;53.114;9.388;2024-02-21T13:14:37;11.70;99.90
19152;DHT22;9708;53.114;9.388;2024-02-21T13:17:04;11.70;99.90
19152;DHT22;9708;53.114;9.388;2024-02-21T13:19:31;11.80;99.90
19152;DHT22;9708;53.114;9.388;2024-02-21T13:21:58;11.60;99.90
19152;DHT22;9708;53.114;9.388;2024-02-21T13:24:25;11.60;99.90
19152;DHT22;9708;53.114;9.388;2024-02-21T13:26:52;11.70;99.90
19152;DHT22;9708;53.114;9.388;2024-02-21T13:29:19;11.60;99.90
19152;DHT22;9708;53.114;9.388;2024-02-21T13:31:48;11.50;99.90
19152;DHT22;9708;53.114;9.388;2024-02-21T13:34:15;11.60;99.90
19152;DHT22;9708;53.114;9.388;2024-02-21T13:36:43;11.60;99.90
19152;DHT22;9708;53.114;9.388;2024-02-21T13:39:10;11.60;99.90
19152;DHT22;9708;53.114;9.388;2024-02-21T13:41:41;11.70;99.90
19152;DHT22;9708;53.114;9.388;2024-02-21T13:44:08;11.80;99.90
19152;DHT22;9708;53.114;9.388;2024-02-21T13:46:35;11.90;99.90
19152;DHT22;9708;53.114;9.388;2024-02-21T13:49:05;12.00;99.90
19152;DHT22;9708;53.114;9.388;2024-02-21T13:51:33;11.90;99.90
19152;DHT22;9708;53.114;9.388;2024-02-21T13:54:01;11.80;99.90
19152;DHT22;9708;53.114;9.388;2024-02-21T13:56:28;11.80;99.90
19152;DHT22;9708;53.114;9.388;2024-02-21T13:58:55;11.70;99.90
19152;DHT22;9708;53.114;9.388;2024-02-21T14:01:22;11.50;99.90
19152;DHT22;9708;53.114;9.388;2024-02-21T14:03:49;11.40;99.90
19152;DHT22;9708;53.114;9.388;2024-02-21T14:06:17;11.40;99.90
19152;DHT22;9708;53.114;9.388;2024-02-21T14:08:44;11.40;99.90
19152;DHT22;9708;53.114;9.388;2024-02-21T14:11:11;11.40;99.90
19152;DHT22;9708;53.114;9.388;2024-02-21T14:13:40;11.30;99.90
19152;DHT22;9708;53.114;9.388;2024-02-21T14:16:09;11.30;99.90
19152;DHT22;9708;53.114;9.388;2024-02-21T14:18:38;11.30;99.90
19152;DHT22;9708;53.114;9.388;2024-02-21T14:21:06;11.40;99.90
19152;DHT22;9708;53.114;9.388;2024-02-21T14:23:34;11.40;99.90
19152;DHT22;9708;53.114;9.388;2024-02-21T14:26:01;11.40;99.90
19152;DHT22;9708;53.114;9.388;2024-02-21T14:28:28;11.30;99.90
19152;DHT22;9708;53.114;9.388;2024-02-21T14:30:55;11.30;99.90
19152;DHT22;9708;53.114;9.388;2024-02-21T14:33:23;11.40;99.90
19152;DHT22;9708;53.114;9.388;2024-02-21T14:35:50;11.40;99.90
19152;DHT22;9708;53.114;9.388;2024-02-21T14:38:18;11.20;99.90
19152;DHT22;9708;53.114;9.388;2024-02-21T14:40:47;11.10;99.90
19152;DHT22;9708;53.114;9.388;2024-02-21T14:43:14;11.00;99.90
19152;DHT22;9708;53.114;9.388;2024-02-21T14:45:41;11.00;99.90
19152;DHT22;9708;53.114;9.388;2024-02-21T14:48:08;10.90;99.90
19152;DHT22;9708;53.114;9.388;2024-02-21T14:50:35;10.90;99.90
19152;DHT22;9708;53.114;9.388;2024-02-21T14:53:02;10.90;99.90
19152;DHT22;9708;53.114;9.388;2024-02-21T14:55:29;10.90;99.90
19152;DHT22;9708;53.114;9.388;2024-02-21T14:57:58;11.00;99.90
19152;DHT22;9708;53.114;9.388;2024-02-21T15:00:24;10.90;99.90
19152;DHT22;9708;53.114;9.388;2024-02-21T15:02:55;10.80;99.90
19152;DHT22;9708;53.114;9.388;2024-02-21T15:05:23;10.90;99.90
19152;DHT22;9708;53.114;9.388;2024-02-21T15:07:50;10.80;99.90
19152;DHT22;9708;53.114;9.388;2024-02-21T15:10:17;10.70;99.90
19152;DHT22;9708;53.114;9.388;2024-02-21T15:12:44;10.80;99.90
19152;DHT22;9708;53.114;9.388;2024-02-21T15:15:13;10.80;99.90
19152;DHT22;9708;53.114;9.388;2024-02-21T15:17:40;10.80;99.90
19152;DHT22;9708;53.114;9.388;2024-02-21T15:20:08;10.80;99.90
19152;DHT22;9708;53.114;9.388;2024-02-21T15:22:36;10.70;99.90
19152;DHT22;9708;53.114;9.388;2024-02-21T15:25:04;10.70;99.90
19152;DHT22;9708;53.114;9.388;2024-02-21T15:27:31;10.70;99.90
19152;DHT22;9708;53.114;9.388;2024-02-21T15:29:58;10.70;99.90
19152;DHT22;9708;53.114;9.388;2024-02-21T15:32:26;10.60;99.90
19152;DHT22;9708;53.114;9.388;2024-02-21T15:34:54;10.60;99.90
19152;DHT22;9708;53.114;9.388;2024-02-21T15:37:20;10.50;99.90
19152;DHT22;9708;53.114;9.388;2024-02-21T15:39:47;10.50;99.90
19152;DHT22;9708;53.114;9.388;2024-02-21T15:42:14;10.50;99.90
19152;DHT22;9708;53.114;9.388;2024-02-21T15:44:41;10.50;99.90
19152;DHT22;9708;53.114;9.388;2024-02-21T15:47:08;10.40;99.90
19152;DHT22;9708;53.114;9.388;2024-02-21T15:49:36;10.40;99.90
19152;DHT22;9708;53.114;9.388;2024-02-21T15:52:03;10.40;99.90
19152;DHT22;9708;53.114;9.388;2024-02-21T15:54:30;10.40;99.90
19152;DHT22;9708;53.114;9.388;2024-02-21T15:56:57;10.40;99.90
19152;DHT22;9708;53.114;9.388;2024-02-21T15:59:24;10.40;99.90
19152;DHT22;9708;53.114;9.388;2024-02-21T16:01:51;10.30;99.90